ADDS METAR Data INFO
IDs: Format: Raw Decoded Include TAF

Data at: 0745 UTC 23 Apr 2018

KBGD 230651Z AUTO 07003KT 10SM CLR 09/04 A3017 RMK AO2 SLP207 T00890044
KBGD 230551Z AUTO 02003KT 10SM CLR 09/04 A3018 RMK AO2 SLP208 T00940044 10156 20089 401610044 53007
KBGD 230451Z AUTO 04005KT 10SM CLR 10/04 A3016 RMK AO2 SLP203 T01000039
KBGD 230351Z AUTO 34003KT 10SM CLR 11/04 A3017 RMK AO2 SLP204 T01110039
KBGD 230251Z AUTO 03005KT 10SM CLR 12/03 A3015 RMK AO2 SLP200 T01220033 53007
KBGD 230151Z AUTO 03005KT 10SM CLR 13/03 A3014 RMK AO2 SLP198 T01330033
KBGD 230051Z AUTO 36004KT 10SM CLR 15/03 A3013 RMK AO2 SLP196 T01500028
KBGD 222351Z AUTO 35006KT 10SM CLR 16/03 A3013 RMK AO2 SLP192 T01560028 10161 20111 56009
KBGD 222251Z AUTO 34005KT 10SM CLR 16/03 A3013 RMK AO2 SLP194 T01560028
KBGD 222151Z AUTO 35008G15KT 10SM CLR 15/03 A3013 RMK AO2 SLP194 T01500028
KBGD 222051Z AUTO 03008KT 10SM BKN040 14/03 A3016 RMK AO2 SLP204 T01440033 58016
KBGD 221951Z AUTO 02012KT 10SM SCT038 14/03 A3018 RMK AO2 SLP213 T01390033
KBGD 221851Z AUTO 03010G17KT 10SM SCT038 13/03 A3019 RMK AO2 SLP217 T01280033
KBGD 221751Z AUTO 02011G21KT 10SM OVC033 11/03 A3021 RMK AO2 SLP225 T01110033 10122 20050 56002
KBGD 221707Z AUTO 01015G18KT 10SM BKN030 11/04 A3022 RMK AO2 T01110039
KBGD 221651Z AUTO 01014G18KT 10SM BKN028 11/03 A3022 RMK AO2 SLP225 T01110033
KBGD 221551Z AUTO 02012KT 10SM SCT021 10/04 A3021 RMK AO2 SLP226 T01000039
KBGD 221510Z AUTO 36013KT 10SM BKN019 08/03 A3022 RMK AO2 T00830028
KBGD 221451Z AUTO 36010KT 10SM FEW017 08/04 A3022 RMK AO2 SLP228 T00830039 57003
KBGD 221351Z AUTO 35011KT 10SM FEW017 07/04 A3022 RMK AO2 SLP231 T00670039
KBGD 221348Z AUTO 34011KT 10SM FEW017 07/04 A3022 RMK AO2
KBGD 221332Z AUTO 33008KT 8SM BKN015 BKN025 06/04 A3022 RMK AO2 T00560044
KBGD 221251Z AUTO 34006KT 8SM BKN011 BKN020 05/04 A3023 RMK AO2 SLP234 T00500039
KBGD 221151Z AUTO VRB05KT 9SM OVC010 06/04 A3022 RMK AO2 CIG 008V013 SLP228 70034 T00560039 10061 20044 53008
KBGD 221107Z AUTO 33004KT 9SM BKN008 OVC013 06/04 A3021 RMK AO2 T00560044
KBGD 221051Z AUTO VRB04KT 9SM OVC010 06/04 A3021 RMK AO2 SLP225 T00560044
KBGD 221034Z AUTO 32003KT 9SM OVC010 05/04 A3020 RMK AO2 CIG 007V013 T00500044
KBGD 221027Z AUTO 31005KT 9SM BKN008 BKN013 05/04 A3020 RMK AO2 CIG 007V012 T00500039
KBGD 221011Z AUTO 29006KT 8SM SCT008 04/04 A3020 RMK AO2 T00440039
KBGD 220951Z AUTO 34006KT 9SM CLR 05/04 A3020 RMK AO2 SLP222 T00500039
KBGD 220851Z AUTO 36006KT 10SM FEW010 06/04 A3019 RMK AO2 SLP219 T00560039 58005
KBGD 220751Z AUTO 34004KT 10SM FEW011 06/04 A3020 RMK AO2 SLP223 T00560044
KBGD 220737Z AUTO 29005KT 10SM SCT011 06/04 A3020 RMK AO2 T00610044
KBGD 220651Z AUTO 35008KT 10SM BKN011 BKN100 06/05 A3021 RMK AO2 SLP225 T00610050
KBGD 220647Z AUTO 34007KT 10SM BKN011 BKN100 06/05 A3021 RMK AO2
KBGD 220638Z AUTO 34005KT 10SM SCT009 SCT013 BKN110 06/05 A3021 RMK AO2 T00610050
KBGD 220551Z AUTO 36004KT 10SM CLR 07/05 A3021 RMK AO2 SLP226 T00670050 10094 20067 401220067 50003
KBGD 220451Z AUTO 35004KT 10SM SCT012 BKN046 07/06 A3022 RMK AO2 SLP230 T00720056
KBGD 220413Z AUTO 03007KT 10SM BKN011 BKN046 08/06 A3021 RMK AO2 T00780056
KBGD 220406Z AUTO 03007KT 10SM SCT013 OVC045 08/06 A3021 RMK AO2 T00780056
KBGD 220351Z AUTO 03009KT 10SM BKN012 08/06 A3020 RMK AO2 SLP222 T00780056
KBGD 220251Z AUTO 36008KT 10SM OVC037 08/06 A3021 RMK AO2 SLP225 T00830056 53019
KBGD 220151Z AUTO 36006KT 10SM FEW016 OVC034 09/06 A3019 RMK AO2 SLP216 T00890061
KBGD 220051Z AUTO 36011KT 10SM BKN017 BKN025 OVC035 09/06 A3016 RMK AO2 SLP207 T00940061
KBGD 220042Z AUTO 36014G19KT 10SM BKN018 BKN033 OVC040 10/06 A3016 RMK AO2 T01000061
KBGD 220017Z AUTO 36012KT 10SM SCT018 OVC040 10/06 A3015 RMK AO2 T01000061
KBGD 212351Z AUTO 36011G19KT 10SM SCT018 BKN029 OVC036 10/06 A3015 RMK AO2 SLP201 60027 T01000061 10122 20083 51013
KBGD 212349Z AUTO 36010G19KT 10SM SCT017 BKN030 OVC036 10/06 A3015 RMK AO2
KBGD 212251Z AUTO 36014KT 10SM FEW016 OVC024 10/06 A3013 RMK AO2 SLP194 T01000061
KBGD 212151Z AUTO 36013KT 10SM OVC018 11/07 A3010 RMK AO2 SLP186 T01060067
KBGD 212051Z AUTO 01011KT 10SM FEW013 BKN020 OVC090 11/07 A3009 RMK AO2 SLP182 60027 T01060072 58001
KBGD 212046Z AUTO 02012KT 10SM SCT015 BKN020 OVC085 11/07 A3009 RMK AO2
KBGD 212004Z AUTO 01013KT 10SM FEW007 BKN012 OVC044 09/07 A3010 RMK AO2 T00940072
KBGD 211951Z AUTO 01012KT 10SM BKN009 BKN012 OVC044 09/08 A3010 RMK AO2 RAE08 CIG 006V010 SLP185 P0002 T00940078
KBGD 211946Z AUTO 01012KT 10SM BKN009 BKN012 OVC041 09/08 A3009 RMK AO2 RAE08 P0002